• Join FlightAware (Why Join?)
  • Login
  • US Flag 
08:00PM EDT


 

Airport Tracker/Info


-or-


 

Live Flight TrackerFlight Track Log ✈ AWE3397 ✈ 15-May-2013 ✈ KPHL - KMSY

Flight Track Log - Related Links

Times and Time Zones

All times are in EDT time to prevent confusion due to time zone crossing. See the AWE3397 flight status page for this flight to view local times or setup timezone preferences in your user account.

Time Position Orientation Groundspeed Altitude Reporting Facility
EDT Latitude Longitude Course Direction KTS MPH feet Rate Location/Type
08:21AM 39.8833 -75.2167 261° West 157 181 900  Level Philadelphia TRACON
08:22AM 39.9000 -75.1667 67° East 188 216 2,000 2,100 Climbing Philadelphia TRACON
08:23AM 39.8333 -75.6247 270° West  Level FlightAware Approximate
08:24AM 39.8333 -75.7608 270° West  Level FlightAware Approximate
08:24AM 39.9433 -75.2411 307° West 165 190 7,500  Level New York Center
08:25AM 39.8149 -75.8944 258° West  Level FlightAware Approximate
08:25AM 39.9275 -75.3294 257° West 218 251 10,600  Level New York Center
08:26AM 39.7965 -76.0280 261° West  Level FlightAware Approximate
08:26AM 39.9089 -75.4311 257° West 275 316 12,500  Level New York Center
08:27AM 39.8833 -75.5511 255° West 309 356 15,100 2,460 Climbing New York Center
08:28AM 39.8644 -75.6525 256° West 319 367 17,500 2,040 Climbing New York Center
08:29AM 39.8472 -75.7675 259° West 325 374 19,300 1,860 Climbing New York Center
08:30AM 39.8317 -75.8856 260° West 330 380 21,200 1,980 Climbing New York Center
08:31AM 39.8158 -76.0086 261° West 341 392 23,300 1,800 Climbing New York Center
08:32AM 39.8061 -76.1322 264° West 346 398 24,900 1,680 Climbing New York Center
08:33AM 39.8019 -76.2697 268° West 351 404 26,700 1,560 Climbing New York Center
08:34AM 39.7981 -76.3967 268° West 351 404 28,100 1,200 Climbing New York Center
08:35AM 39.7503 -76.5197 243° Southwest 356 410 29,100 900 Climbing New York Center
08:36AM 39.6947 -76.6189 234° Southwest 366 421 29,800 840 Climbing Washington Center
08:37AM 39.6292 -76.7367 234° Southwest 399 459 30,700 780 Climbing Washington Center
08:38AM 39.5611 -76.8567 234° Southwest 413 475 31,400 960 Climbing Washington Center
08:39AM 39.4931 -76.9764 234° Southwest 420 483 32,700 1,140 Climbing Washington Center
08:40AM 39.4044 -77.0742 220° Southwest 420 483 33,700 840 Climbing Washington Center
08:41AM 39.3136 -77.1689 219° Southwest 420 483 34,400 600 Climbing Washington Center
08:42AM 39.2228 -77.2633 219° Southwest 420 483 35,000 540 Climbing Washington Center
08:43AM 39.1297 -77.3603 219° Southwest 427 491 35,600 480 Climbing Washington Center
08:44AM 39.0408 -77.4544 219° Southwest 427 491 36,000 180 Climbing Washington Center
08:45AM 38.9475 -77.5508 219° Southwest 427 491 36,000  Level Washington Center
08:46AM 38.8669 -77.6339 219° Southwest 427 491 36,000  Level Washington Center
08:47AM 38.7650 -77.7375 218° Southwest 427 491 36,000  Level Washington Center
08:48AM 38.6736 -77.8333 219° Southwest 432 497 36,000  Level Washington Center
08:49AM 38.5986 -77.9372 227° Southwest 412 474 36,000  Level Washington Center
08:50AM 38.5403 -78.0364 233° Southwest 405 466 36,000  Level Washington Center
08:51AM 38.4756 -78.1508 234° Southwest 405 466 36,000  Level Washington Center
08:52AM 38.4106 -78.2625 233° Southwest 405 466 36,000  Level Washington Center
08:53AM 38.3433 -78.3739 232° Southwest 405 466 36,000  Level Washington Center
08:54AM 38.2761 -78.4853 232° Southwest 405 466 36,000  Level Washington Center
08:55AM 38.2042 -78.6092 234° Southwest 400 460 36,000  Level Washington Center
08:56AM 38.1389 -78.7203 233° Southwest 400 460 36,000  Level Washington Center
08:57AM 38.0689 -78.8361 233° Southwest 406 467 36,000  Level Washington Center
08:58AM 38.0033 -78.9464 233° Southwest 406 467 36,000  Level Washington Center
08:59AM 37.9422 -79.0464 232° Southwest 406 467 36,000  Level Washington Center
09:00AM 37.8783 -79.1592 234° Southwest 406 467 36,000  Level Washington Center
09:01AM 37.8206 -79.2775 238° Southwest 401 461 36,000  Level Washington Center
09:02AM 37.7581 -79.4083 239° Southwest 395 455 36,000  Level Washington Center
09:03AM 37.7025 -79.5133 236° Southwest 401 461 36,000  Level Washington Center
09:04AM 37.6356 -79.6436 237° Southwest 401 461 36,000  Level Washington Center
09:05AM 37.5839 -79.7508 239° Southwest 401 461 36,000  Level Washington Center
09:06AM 37.5211 -79.8731 237° Southwest 401 461 36,000  Level Washington Center
09:07AM 37.4083 -80.0886 237° Southwest 403 464 36,000  Level Atlanta Center
09:08AM 37.3475 -80.2092 238° Southwest 403 464 36,000  Level Atlanta Center
09:09AM 37.2886 -80.3269 238° Southwest 403 464 36,000  Level Atlanta Center
09:10AM 37.2356 -80.4336 238° Southwest 403 464 36,000  Level Atlanta Center
09:11AM 37.1744 -80.5511 237° Southwest 403 464 36,000  Level Atlanta Center
09:12AM 37.1153 -80.6708 238° Southwest 403 464 36,000  Level Atlanta Center
09:13AM 37.0581 -80.7903 239° Southwest 403 464 36,000  Level Atlanta Center
09:14AM 36.9903 -80.9153 236° Southwest 403 464 36,000  Level Atlanta Center
09:15AM 36.9328 -81.0292 238° Southwest 403 464 36,000  Level Atlanta Center
09:16AM 36.8708 -81.1456 236° Southwest 403 464 36,000  Level Atlanta Center
09:17AM 36.8131 -81.2644 239° Southwest 403 464 36,000  Level Atlanta Center
09:18AM 36.7572 -81.3778 238° Southwest 398 458 36,000  Level Atlanta Center
09:19AM 36.6992 -81.4964 239° Southwest 398 458 36,000  Level Atlanta Center
09:20AM 36.6350 -81.6122 235° Southwest 403 464 36,000  Level Atlanta Center
09:21AM 36.5725 -81.7303 237° Southwest 403 464 36,000  Level Atlanta Center
09:22AM 36.5142 -81.8458 238° Southwest 403 464 36,000  Level Atlanta Center
09:23AM 36.4517 -81.9608 236° Southwest 403 464 36,000  Level Atlanta Center
09:24AM 36.3908 -82.0786 237° Southwest 403 464 36,000  Level Atlanta Center
09:25AM 36.3239 -82.1989 235° Southwest 413 475 36,000  Level Atlanta Center
09:26AM 36.2611 -82.3186 237° Southwest 418 481 36,000  Level Atlanta Center
09:27AM 36.1981 -82.4383 237° Southwest 418 481 36,000  Level Atlanta Center
09:28AM 36.1369 -82.5553 237° Southwest 418 481 36,000  Level Atlanta Center
09:29AM 36.0756 -82.6694 236° Southwest 418 481 36,000  Level Atlanta Center
09:30AM 36.0122 -82.7886 237° Southwest 418 481 36,000  Level Atlanta Center
09:31AM 35.9508 -82.9050 237° Southwest 418 481 36,000  Level Atlanta Center
09:32AM 35.8872 -83.0186 235° Southwest 418 481 36,000  Level Atlanta Center
09:33AM 35.8275 -83.1347 238° Southwest 418 481 36,000  Level Atlanta Center
09:34AM 35.7658 -83.2506 237° Southwest 418 481 36,000  Level Atlanta Center
09:35AM 35.7039 -83.3636 236° Southwest 418 481 36,000  Level Atlanta Center
09:36AM 35.6419 -83.4739 235° Southwest 413 475 36,000  Level Atlanta Center
09:37AM 35.5819 -83.5842 236° Southwest 408 470 36,000  Level Atlanta Center
09:38AM 35.5197 -83.6969 236° Southwest 408 470 36,000  Level Atlanta Center
09:39AM 35.4572 -83.8092 236° Southwest 403 464 36,000  Level Atlanta Center
09:40AM 35.3947 -83.9217 236° Southwest 403 464 36,000  Level Atlanta Center
09:41AM 35.3344 -84.0311 236° Southwest 403 464 36,000  Level Atlanta Center
09:42AM 35.2739 -84.1406 236° Southwest 403 464 36,000  Level Atlanta Center
09:43AM 35.2111 -84.2522 235° Southwest 403 464 36,000  Level Atlanta Center
09:44AM 35.1503 -84.3614 236° Southwest 398 458 36,000  Level Atlanta Center
09:45AM 35.0894 -84.4678 235° Southwest 398 458 36,000  Level Atlanta Center
09:46AM 35.0286 -84.5792 236° Southwest 398 458 36,000  Level Atlanta Center
09:47AM 34.9656 -84.6875 235° Southwest 398 458 36,000  Level Atlanta Center
09:48AM 34.9022 -84.7961 235° Southwest 398 458 36,000  Level Atlanta Center
09:49AM 34.8411 -84.9069 236° Southwest 398 458 36,000  Level Atlanta Center
09:50AM 34.7775 -85.0150 234° Southwest 398 458 36,000  Level Atlanta Center
09:51AM 34.7161 -85.1228 235° Southwest 392 451 36,000  Level Atlanta Center
09:52AM 34.6525 -85.2356 236° Southwest 398 458 36,000  Level Atlanta Center
09:53AM 34.5908 -85.3433 235° Southwest 398 458 36,000  Level Atlanta Center
09:54AM 34.5292 -85.4508 235° Southwest 393 452 36,000  Level Atlanta Center
09:55AM 34.4781 -85.5381 235° Southwest 393 452 36,000  Level Atlanta Center
09:56AM 34.4097 -85.6553 235° Southwest 393 452 36,000  Level Atlanta Center
09:57AM 34.3414 -85.7772 236° Southwest 398 458 36,000  Level Atlanta Center
09:58AM 34.2772 -85.8789 233° Southwest 393 452 36,000  Level Atlanta Center
09:59AM 34.2131 -85.9881 235° Southwest 393 452 36,000  Level Atlanta Center
10:00AM 34.1486 -86.0969 234° Southwest 398 458 36,000  Level Atlanta Center
10:01AM 34.0842 -86.2083 235° Southwest 398 458 36,000  Level Atlanta Center
10:02AM 34.0175 -86.3144 233° Southwest 398 458 36,000  Level Atlanta Center
10:03AM 33.9506 -86.4253 234° Southwest 403 464 36,000  Level Atlanta Center
10:04AM 33.8858 -86.5361 235° Southwest 408 470 36,000  Level Atlanta Center
10:05AM 33.8208 -86.6467 235° Southwest 408 470 36,000  Level Atlanta Center
10:06AM 33.7561 -86.7547 234° Southwest 408 470 36,000  Level Atlanta Center
10:07AM 33.6908 -86.8650 235° Southwest 408 470 36,000  Level Atlanta Center
10:08AM 33.6194 -86.9725 231° Southwest 408 470 36,000  Level Atlanta Center
10:09AM 33.5481 -87.0797 231° Southwest 413 475 36,000  Level Atlanta Center
10:10AM 33.4764 -87.1892 232° Southwest 413 475 36,000  Level Atlanta Center
10:11AM 33.4067 -87.2961 232° Southwest 413 475 36,000  Level Atlanta Center
10:12AM 33.3350 -87.4003 231° Southwest 418 481 36,000  Level Atlanta Center
10:13AM 33.2633 -87.5069 231° Southwest 418 481 36,000  Level Atlanta Center
10:15AM 33.1622 -87.6572 231° Southwest 414 476 36,000  Level Memphis Center
10:16AM 33.0914 -87.7611 231° Southwest 414 476 36,000  Level Memphis Center
10:17AM 33.0206 -87.8672 231° Southwest 414 476 36,000  Level Memphis Center
10:18AM 32.9597 -87.9631 233° Southwest 414 476 36,000  Level Memphis Center
10:19AM 32.8886 -88.0664 231° Southwest 409 471 36,000  Level Memphis Center
10:20AM 32.8197 -88.1719 232° Southwest 409 471 36,000  Level Memphis Center
10:21AM 32.7464 -88.2775 230° Southwest 414 476 36,000  Level Memphis Center
10:22AM 32.6728 -88.3831 230° Southwest 414 476 36,000  Level Memphis Center
10:23AM 32.5994 -88.4906 231° Southwest 414 476 36,000  Level Memphis Center
10:24AM 32.5278 -88.5931 230° Southwest 414 476 36,000  Level Memphis Center
10:25AM 32.4561 -88.6956 230° Southwest 414 476 36,000  Level Memphis Center
10:26AM 32.3825 -88.7978 230° Southwest 414 476 36,000  Level Memphis Center
10:27AM 32.2958 -88.8878 221° Southwest 414 476 36,000  Level Memphis Center
10:28AM 32.2050 -88.9725 218° Southwest 414 476 36,000  Level Memphis Center
10:29AM 32.1161 -89.0597 220° Southwest 419 482 36,000 -780 Level Memphis Center
10:31AM 31.9039 -89.2647 219° Southwest 415 478 33,400 -1,440 Descending Houston Center
10:32AM 31.8153 -89.3511 220° Southwest 415 478 31,200 -2,280 Descending Houston Center
10:33AM 31.7131 -89.4328 214° Southwest 439 505 28,800 -2,520 Descending Houston Center
10:34AM 31.5861 -89.5172 210° Southwest 445 512 26,000 -2,280 Descending Houston Center
10:35AM 31.4944 -89.5778 209° Southwest 434 499 24,100 -1,200 Descending Houston Center
10:36AM 31.3956 -89.6439 210° Southwest 417 480 23,600 -840 Descending Houston Center
10:37AM 31.2781 -89.7219 210° Southwest 408 470 22,400 -1,080 Descending Houston Center
10:38AM 31.1806 -89.7853 209° Southwest 404 465 21,400 -1,020 Descending Houston Center
10:39AM 31.0844 -89.8481 209° Southwest 398 458 20,400 -1,020 Descending Houston Center
10:41AM 30.9939 -89.9069 209° Southwest 380 437 19,400 -960 Descending Houston Center
10:42AM 30.9025 -89.9669 209° Southwest 378 435 18,400 -1,440 Descending Houston Center
10:43AM 30.7928 -90.0389 209° Southwest 380 437 16,500 -1,800 Descending Houston Center
10:43AM 30.7639 -90.0575 209° Southwest 380 437 16,000 -1,860 Descending Houston Center
10:44AM 30.7033 -90.0964 209° Southwest 372 428 14,600 -1,980 Descending Houston Center
10:45AM 30.6078 -90.1439 203° Southwest 346 398 12,700 -1,740 Descending Houston Center
10:46AM 30.5100 -90.1528 184° South 355 409 11,100 -1,140 Descending Houston Center
10:47AM 30.4247 -90.1622 185° South 347 399 10,400 -1,320 Descending Houston Center
10:48AM 30.3300 -90.1711 185° South 293 337 8,400 -2,040 Descending Houston Center
10:49AM 30.2433 -90.1806 185° South 265 305 6,100 -1,920 Descending Houston Center
10:50AM 30.1831 -90.1878 186° South 213 245 4,400 -1,560 Descending Houston Center
10:51AM 30.1314 -90.2067 198° South 184 212 3,000 -1,380 Descending Houston Center